createdAt,value
2022-07-27T00:01:09.800Z,79.66
2022-07-27T00:03:38.393Z,79.86
2022-07-27T00:06:06.580Z,80.50
2022-07-27T00:08:34.762Z,80.29
2022-07-27T00:11:03.314Z,80.63
2022-07-27T00:13:31.663Z,80.42
2022-07-27T00:15:59.498Z,80.38
2022-07-27T00:18:28.972Z,79.96
2022-07-27T00:20:56.872Z,80.13
2022-07-27T00:23:24.692Z,81.00
2022-07-27T00:25:52.707Z,81.22
2022-07-27T00:28:20.536Z,81.03
2022-07-27T00:30:48.305Z,80.52
2022-07-27T00:33:17.318Z,80.42
2022-07-27T00:35:46.967Z,81.32
2022-07-27T00:38:16.509Z,82.04
2022-07-27T00:40:45.124Z,81.99
2022-07-27T00:43:13.654Z,81.08
2022-07-27T00:45:41.684Z,80.62
2022-07-27T00:48:09.517Z,80.11
2022-07-27T00:50:38.638Z,80.08
2022-07-27T00:53:09.334Z,80.80
2022-07-27T00:55:39.380Z,81.14
2022-07-27T00:58:08.699Z,82.26
2022-07-27T01:00:37.096Z,81.47
2022-07-27T01:03:08.800Z,81.00
2022-07-27T01:05:43.130Z,80.85
2022-07-27T01:08:15.005Z,80.88
2022-07-27T01:10:44.475Z,80.97
2022-07-27T01:13:13.478Z,81.05
2022-07-27T01:15:43.311Z,81.03
2022-07-27T01:18:26.476Z,80.41
2022-07-27T01:20:54.379Z,80.31
2022-07-27T01:23:23.593Z,80.69
2022-07-27T01:25:51.787Z,81.65
2022-07-27T01:28:19.654Z,83.24
2022-07-27T01:30:47.669Z,82.57
2022-07-27T01:33:15.466Z,82.50
2022-07-27T01:35:43.379Z,81.50
2022-07-27T01:38:12.894Z,81.19
2022-07-27T01:40:42.185Z,80.60
2022-07-27T01:43:10.035Z,81.61
2022-07-27T01:45:37.902Z,81.30
2022-07-27T01:48:06.138Z,81.45
2022-07-27T01:50:33.977Z,81.38
2022-07-27T01:53:02.023Z,82.24
2022-07-27T01:55:38.751Z,82.41
2022-07-27T01:58:09.472Z,83.13
2022-07-27T02:00:38.101Z,84.71
2022-07-27T02:03:07.755Z,85.37
2022-07-27T02:05:36.058Z,85.03
2022-07-27T02:08:04.658Z,85.00
2022-07-27T02:10:33.026Z,85.09
2022-07-27T02:12:59.825Z,84.62
2022-07-27T02:15:38.838Z,85.22
2022-07-27T02:18:32.832Z,85.88
2022-07-27T02:20:59.352Z,85.73
2022-07-27T02:23:27.354Z,86.09
2022-07-27T02:25:55.194Z,87.07
2022-07-27T02:28:29.052Z,88.01
2022-07-27T02:30:58.202Z,88.75
2022-07-27T02:33:26.026Z,88.86
2022-07-27T02:35:53.903Z,87.71
2022-07-27T02:38:21.740Z,88.20
2022-07-27T02:40:49.558Z,88.30
2022-07-27T02:43:17.310Z,88.20
2022-07-27T02:45:46.455Z,89.01
2022-07-27T02:48:16.223Z,90.04
2022-07-27T02:50:44.084Z,91.57
2022-07-27T02:53:11.918Z,92.90
2022-07-27T02:55:40.120Z,92.79
2022-07-27T02:58:08.208Z,93.82
2022-07-27T03:00:35.990Z,93.55
2022-07-27T03:03:03.923Z,94.94
2022-07-27T03:05:33.655Z,95.06
2022-07-27T03:08:01.646Z,94.69
2022-07-27T03:10:29.400Z,94.85
2022-07-27T03:12:57.188Z,93.68
2022-07-27T03:15:25.182Z,94.50
2022-07-27T03:17:54.035Z,93.90
2022-07-27T03:20:21.980Z,93.54
2022-07-27T03:22:51.090Z,93.34
2022-07-27T03:25:18.950Z,93.66
2022-07-27T03:27:46.767Z,94.26
2022-07-27T03:30:15.005Z,94.66
2022-07-27T03:32:42.794Z,95.60
2022-07-27T03:35:10.989Z,95.09
2022-07-27T03:37:38.834Z,95.04
2022-07-27T03:40:09.784Z,95.10
2022-07-27T03:42:37.944Z,96.63
2022-07-27T03:45:06.979Z,94.50
2022-07-27T03:47:34.775Z,94.45
2022-07-27T03:50:02.781Z,94.26
2022-07-27T03:52:30.690Z,94.58
2022-07-27T03:54:58.515Z,95.96
2022-07-27T03:57:27.604Z,96.31
2022-07-27T03:59:55.417Z,96.84
2022-07-27T04:02:23.292Z,97.66
2022-07-27T04:04:51.384Z,97.10
2022-07-27T04:07:19.145Z,97.92
2022-07-27T04:09:47.244Z,98.89
2022-07-27T04:12:17.296Z,99.10
2022-07-27T04:14:49.140Z,99.20
2022-07-27T04:17:56.433Z,99.18
2022-07-27T04:20:05.900Z,98.97
2022-07-27T04:22:33.732Z,98.46
2022-07-27T04:25:01.768Z,98.39
2022-07-27T04:27:29.575Z,98.75
2022-07-27T04:29:58.762Z,98.41
2022-07-27T04:32:26.533Z,97.41
2022-07-27T04:34:54.337Z,96.66
2022-07-27T04:37:22.119Z,96.42
2022-07-27T04:39:49.941Z,96.05
2022-07-27T04:42:18.300Z,94.25
2022-07-27T04:44:46.110Z,94.32
2022-07-27T04:47:15.288Z,94.81
2022-07-27T04:49:43.049Z,94.37
2022-07-27T04:52:10.846Z,93.65
2022-07-27T04:54:38.600Z,94.59
2022-07-27T04:57:06.678Z,95.06
2022-07-27T04:59:34.467Z,92.50
2022-07-27T05:02:02.255Z,90.15
2022-07-27T05:04:31.544Z,91.27
2022-07-27T05:06:59.462Z,93.06
2022-07-27T05:09:27.337Z,91.58
2022-07-27T05:11:55.126Z,92.76
2022-07-27T05:14:23.405Z,93.26
2022-07-27T05:16:51.698Z,92.92
2022-07-27T05:19:19.539Z,95.27
2022-07-27T05:21:48.681Z,94.83
2022-07-27T05:24:16.427Z,94.87
2022-07-27T05:26:45.830Z,95.86
2022-07-27T05:29:14.217Z,92.94
2022-07-27T05:31:42.398Z,92.03
2022-07-27T05:34:10.275Z,93.20
2022-07-27T05:36:38.098Z,93.72
2022-07-27T05:39:10.423Z,93.64
2022-07-27T05:41:41.466Z,92.58
2022-07-27T05:44:09.383Z,92.74
2022-07-27T05:46:37.186Z,91.63
2022-07-27T05:49:06.150Z,92.28
2022-07-27T05:51:33.982Z,92.45
2022-07-27T05:54:01.936Z,92.33
2022-07-27T05:56:31.426Z,92.67
2022-07-27T05:59:01.619Z,93.11
2022-07-27T06:01:32.920Z,92.94
2022-07-27T06:04:01.063Z,91.99
2022-07-27T06:06:46.752Z,90.74
2022-07-27T06:09:15.197Z,90.19
2022-07-27T06:11:44.727Z,89.69
2022-07-27T06:14:12.595Z,88.46
2022-07-27T06:16:40.531Z,89.13
2022-07-27T06:19:08.643Z,88.89
2022-07-27T06:21:36.712Z,88.18
2022-07-27T06:24:05.169Z,88.57
2022-07-27T06:26:32.945Z,88.01
2022-07-27T06:29:02.106Z,88.17
2022-07-27T06:31:35.548Z,87.66
2022-07-27T06:34:03.915Z,89.19
2022-07-27T06:36:36.052Z,87.02
2022-07-27T06:39:03.906Z,86.93
2022-07-27T06:41:34.138Z,86.90
2022-07-27T06:44:03.369Z,86.40
2022-07-27T06:46:31.228Z,85.72
2022-07-27T06:48:59.106Z,84.32
2022-07-27T06:51:26.941Z,84.54
2022-07-27T06:53:54.876Z,82.80
2022-07-27T06:56:23.028Z,83.38
2022-07-27T06:58:51.556Z,85.16
2022-07-27T07:01:20.743Z,84.47
2022-07-27T07:03:48.631Z,83.85
2022-07-27T07:06:16.618Z,84.74
2022-07-27T07:08:44.488Z,83.58
2022-07-27T07:11:14.019Z,83.83
2022-07-27T07:13:44.955Z,81.49
2022-07-27T07:16:13.258Z,81.58
2022-07-27T07:18:42.446Z,80.08
2022-07-27T07:21:10.257Z,79.46
2022-07-27T07:23:38.110Z,78.11
2022-07-27T07:26:06.245Z,76.37
2022-07-27T07:28:34.160Z,76.57
2022-07-27T07:31:02.032Z,76.32
2022-07-27T07:33:29.888Z,77.60
2022-07-27T07:36:13.854Z,77.34
2022-07-27T07:38:43.086Z,78.38
2022-07-27T07:41:10.954Z,77.37
2022-07-27T07:43:39.768Z,76.35
2022-07-27T07:46:09.553Z,76.38
2022-07-27T07:48:39.485Z,76.12
2022-07-27T07:51:09.102Z,74.11
2022-07-27T07:53:41.447Z,74.36
2022-07-27T07:56:09.731Z,74.39
2022-07-27T07:58:37.630Z,74.77
2022-07-27T08:01:05.569Z,74.28
2022-07-27T08:03:33.487Z,72.53
2022-07-27T08:06:02.698Z,74.14
2022-07-27T08:08:33.056Z,73.36
2022-07-27T08:11:00.959Z,72.36
2022-07-27T08:13:28.767Z,72.68
2022-07-27T08:15:56.836Z,72.13
2022-07-27T08:18:24.623Z,71.98
2022-07-27T08:20:52.405Z,71.43
2022-07-27T08:23:20.380Z,71.04
2022-07-27T08:25:49.636Z,70.50
2022-07-27T08:28:17.506Z,70.27
2022-07-27T08:30:46.610Z,69.39
2022-07-27T08:33:14.412Z,69.72
2022-07-27T08:35:42.567Z,70.18
2022-07-27T08:38:10.777Z,70.48
2022-07-27T08:40:42.949Z,71.22
2022-07-27T08:43:21.897Z,70.74
2022-07-27T08:45:57.237Z,70.80
2022-07-27T08:48:25.719Z,70.07
2022-07-27T08:50:54.079Z,68.28
2022-07-27T08:53:22.766Z,67.96
2022-07-27T08:55:51.088Z,64.13
2022-07-27T08:58:20.649Z,66.43
2022-07-27T09:00:50.017Z,65.82
2022-07-27T09:03:21.095Z,64.99
2022-07-27T09:05:52.192Z,64.62
2022-07-27T09:08:24.145Z,64.04
2022-07-27T09:10:54.443Z,65.06
2022-07-27T09:13:26.072Z,63.52
2022-07-27T09:16:16.956Z,61.16
2022-07-27T09:18:43.824Z,61.36
2022-07-27T09:21:16.948Z,61.77
2022-07-27T09:23:48.010Z,62.92
2022-07-27T09:26:31.685Z,61.86
2022-07-27T09:29:03.719Z,62.89
2022-07-27T09:31:32.483Z,63.94
2022-07-27T09:34:01.837Z,63.11
2022-07-27T09:36:31.406Z,61.21
2022-07-27T09:39:03.147Z,61.13
2022-07-27T09:41:43.023Z,59.23
2022-07-27T09:44:31.297Z,58.07
2022-07-27T09:47:00.150Z,57.92
2022-07-27T09:49:32.814Z,57.47
2022-07-27T09:52:02.838Z,56.32
2022-07-27T09:54:44.165Z,55.44
2022-07-27T09:57:12.198Z,55.20
2022-07-27T09:59:41.509Z,55.52
2022-07-27T10:02:09.451Z,55.24
2022-07-27T10:04:37.605Z,54.86
2022-07-27T10:07:09.488Z,55.72
2022-07-27T10:09:41.540Z,56.73
2022-07-27T10:12:10.169Z,56.07
2022-07-27T10:14:37.919Z,56.92
2022-07-27T10:17:10.689Z,56.33
2022-07-27T10:19:46.725Z,56.32
2022-07-27T10:22:14.814Z,54.23
2022-07-27T10:24:42.838Z,54.75
2022-07-27T10:27:21.525Z,54.41
2022-07-27T10:29:50.970Z,54.49
2022-07-27T10:32:26.440Z,54.70
2022-07-27T10:34:54.790Z,53.75
2022-07-27T10:37:26.933Z,53.20
2022-07-27T10:40:11.395Z,53.26
2022-07-27T10:42:39.651Z,53.37
2022-07-27T10:45:09.607Z,53.45
2022-07-27T10:47:42.044Z,54.15
2022-07-27T10:50:33.122Z,54.21
2022-07-27T10:53:11.211Z,54.68
2022-07-27T10:55:46.824Z,55.27
2022-07-27T10:58:52.297Z,54.61
2022-07-27T11:01:21.678Z,52.50
2022-07-27T11:03:54.381Z,53.67
2022-07-27T11:06:41.958Z,54.12
2022-07-27T11:12:02.011Z,53.60
2022-07-27T11:14:31.854Z,52.30
2022-07-27T11:17:24.320Z,51.12
2022-07-27T11:19:54.555Z,50.41
2022-07-27T11:25:21.692Z,50.52
2022-07-27T11:27:50.225Z,50.21
2022-07-27T11:30:27.184Z,50.85
2022-07-27T11:32:56.670Z,51.02
2022-07-27T11:35:25.896Z,51.26
2022-07-27T11:38:01.848Z,49.64
2022-07-27T11:43:34.691Z,49.34
2022-07-27T11:46:15.787Z,50.42
2022-07-27T11:49:06.742Z,49.20
2022-07-27T11:51:37.811Z,49.11
2022-07-27T11:54:08.361Z,48.19
2022-07-27T11:56:37.897Z,48.72
2022-07-27T11:59:11.575Z,48.16
2022-07-27T12:01:42.272Z,47.89
2022-07-27T12:04:19.485Z,47.52
2022-07-27T12:06:55.834Z,48.02
2022-07-27T12:09:24.672Z,46.89
2022-07-27T12:11:55.378Z,47.45
2022-07-27T12:14:34.536Z,47.29
2022-07-27T12:17:14.149Z,46.83
2022-07-27T12:19:42.880Z,46.99
2022-07-27T12:22:12.023Z,46.10
2022-07-27T12:24:42.398Z,46.66
2022-07-27T12:27:14.810Z,46.82
2022-07-27T12:30:00.456Z,47.15
2022-07-27T12:32:29.766Z,48.13
2022-07-27T12:34:57.682Z,49.70
2022-07-27T12:37:32.563Z,49.97
2022-07-27T12:40:01.299Z,49.33
2022-07-27T12:42:37.491Z,48.27
2022-07-27T12:45:18.238Z,47.63
2022-07-27T12:47:46.917Z,49.04
2022-07-27T12:50:17.042Z,48.95
2022-07-27T12:52:49.029Z,49.74
2022-07-27T12:55:17.700Z,49.64
2022-07-27T12:57:55.676Z,49.03
2022-07-27T13:00:33.511Z,48.48
2022-07-27T13:03:03.456Z,49.81
2022-07-27T13:05:31.578Z,48.97
2022-07-27T13:08:01.465Z,48.32
2022-07-27T13:10:29.601Z,47.73
2022-07-27T13:12:58.216Z,47.26
2022-07-27T13:15:26.308Z,47.36
2022-07-27T13:17:54.339Z,47.10
2022-07-27T13:20:22.171Z,48.17
2022-07-27T13:22:49.986Z,46.88
2022-07-27T13:25:19.620Z,45.83
2022-07-27T13:27:49.459Z,45.44
2022-07-27T13:30:19.008Z,44.37
2022-07-27T13:32:47.982Z,43.86
2022-07-27T13:35:17.570Z,43.93
2022-07-27T13:37:46.292Z,43.40
2022-07-27T13:40:15.193Z,44.14
2022-07-27T13:42:44.648Z,44.69
2022-07-27T13:45:12.587Z,44.62
2022-07-27T13:47:41.348Z,45.02
2022-07-27T13:50:17.914Z,44.97
2022-07-27T13:52:46.912Z,45.60
2022-07-27T13:55:15.855Z,46.11
2022-07-27T13:57:45.725Z,44.88
2022-07-27T14:00:14.737Z,45.45
2022-07-27T14:02:43.094Z,44.85
2022-07-27T14:05:13.123Z,43.71
2022-07-27T14:07:43.138Z,43.37
2022-07-27T14:10:30.268Z,44.75
2022-07-27T14:13:07.933Z,44.42
2022-07-27T14:15:50.420Z,45.92
2022-07-27T14:18:29.219Z,44.40
2022-07-27T14:20:59.076Z,44.77
2022-07-27T14:23:28.083Z,44.31
2022-07-27T14:25:58.359Z,45.16
2022-07-27T14:28:29.123Z,44.68
2022-07-27T14:30:57.095Z,43.81
2022-07-27T14:33:26.285Z,43.77
2022-07-27T14:36:02.022Z,43.74
2022-07-27T14:38:30.890Z,43.78
2022-07-27T14:41:00.777Z,43.79
2022-07-27T14:43:31.151Z,43.19
2022-07-27T14:45:59.379Z,44.72
2022-07-27T14:48:48.540Z,44.55
2022-07-27T14:51:15.217Z,44.40
2022-07-27T14:53:43.036Z,43.78
2022-07-27T14:56:10.775Z,43.47
2022-07-27T14:58:39.900Z,43.58
2022-07-27T15:01:07.759Z,43.25
2022-07-27T15:03:35.881Z,42.55
2022-07-27T15:06:03.879Z,42.38
2022-07-27T15:08:31.714Z,42.15
2022-07-27T15:10:59.691Z,42.29
2022-07-27T15:13:27.483Z,43.05
2022-07-27T15:15:58.100Z,42.08
2022-07-27T15:18:26.052Z,40.94
2022-07-27T15:20:53.854Z,41.56
2022-07-27T15:23:22.319Z,41.64
2022-07-27T15:25:50.145Z,41.99
2022-07-27T15:28:17.964Z,41.73
2022-07-27T15:30:45.839Z,42.46
2022-07-27T15:33:15.067Z,42.82
2022-07-27T15:35:43.092Z,43.67
2022-07-27T15:38:10.848Z,43.14
2022-07-27T15:40:38.880Z,44.58
2022-07-27T15:43:10.625Z,44.13
2022-07-27T15:45:39.469Z,43.28
2022-07-27T15:48:09.372Z,42.74
2022-07-27T15:50:41.039Z,42.62
2022-07-27T15:53:09.136Z,41.78
2022-07-27T15:55:39.467Z,41.99
2022-07-27T15:58:07.954Z,41.81
2022-07-27T16:00:40.548Z,41.88
2022-07-27T16:03:10.013Z,41.90
2022-07-27T16:05:39.665Z,42.92
2022-07-27T16:08:09.763Z,41.66
2022-07-27T16:10:37.626Z,41.83
2022-07-27T16:13:05.991Z,43.15
2022-07-27T16:15:52.256Z,43.40
2022-07-27T16:18:20.155Z,42.91
2022-07-27T16:20:49.354Z,43.66
2022-07-27T16:23:19.112Z,43.99
2022-07-27T16:26:07.464Z,44.06
2022-07-27T16:28:38.801Z,44.20
2022-07-27T16:31:08.102Z,42.87
2022-07-27T16:33:36.099Z,43.35
2022-07-27T16:36:08.352Z,43.48
2022-07-27T16:38:37.702Z,43.30
2022-07-27T16:41:10.708Z,43.99
2022-07-27T16:43:39.630Z,43.72
2022-07-27T16:46:09.997Z,44.50
2022-07-27T16:48:42.628Z,44.98
2022-07-27T16:51:13.694Z,45.73
2022-07-27T16:53:43.737Z,44.95
2022-07-27T16:56:12.590Z,44.63
2022-07-27T16:58:40.985Z,44.39
2022-07-27T17:01:09.631Z,44.36
2022-07-27T17:03:49.785Z,44.54
2022-07-27T17:06:20.877Z,44.23
2022-07-27T17:08:49.131Z,44.43
2022-07-27T17:11:21.547Z,43.87
2022-07-27T17:13:51.176Z,45.69
2022-07-27T17:16:27.136Z,44.82
2022-07-27T17:18:55.154Z,44.77
2022-07-27T17:21:24.418Z,44.49
2022-07-27T17:23:52.350Z,44.96
2022-07-27T17:26:20.148Z,45.83
2022-07-27T17:28:52.069Z,45.38
2022-07-27T17:31:21.141Z,45.47
2022-07-27T17:33:49.906Z,45.53
2022-07-27T17:36:17.736Z,47.16
2022-07-27T17:38:48.533Z,47.86
2022-07-27T17:41:23.811Z,47.18
2022-07-27T17:43:52.813Z,45.97
2022-07-27T17:46:21.071Z,47.02
2022-07-27T17:48:49.007Z,47.03
2022-07-27T17:51:16.898Z,48.10
2022-07-27T17:53:46.578Z,47.99
2022-07-27T17:56:14.332Z,46.81
2022-07-27T17:58:42.911Z,47.77
2022-07-27T18:01:10.769Z,47.26
2022-07-27T18:03:38.591Z,48.53
2022-07-27T18:06:06.943Z,47.59
2022-07-27T18:08:34.923Z,49.05
2022-07-27T18:11:04.577Z,47.15
2022-07-27T18:13:39.504Z,47.19
2022-07-27T18:16:11.483Z,48.83
2022-07-27T18:18:41.275Z,48.89
2022-07-27T18:21:10.573Z,49.70
2022-07-27T18:23:38.776Z,49.13
2022-07-27T18:26:09.914Z,49.63
2022-07-27T18:28:40.063Z,49.41
2022-07-27T18:31:09.698Z,49.27
2022-07-27T18:33:37.912Z,48.69
2022-07-27T18:36:06.463Z,50.12
2022-07-27T18:38:34.430Z,50.14
2022-07-27T18:41:02.905Z,50.09
2022-07-27T18:43:32.167Z,51.05
2022-07-27T18:45:59.991Z,50.81
2022-07-27T18:48:28.805Z,50.75
2022-07-27T18:50:56.943Z,51.11
2022-07-27T18:53:25.009Z,51.01
2022-07-27T18:55:56.185Z,51.58
2022-07-27T18:58:25.802Z,51.15
2022-07-27T19:00:55.640Z,50.97
2022-07-27T19:03:24.604Z,51.86
2022-07-27T19:05:55.716Z,52.20
2022-07-27T19:08:24.145Z,52.55
2022-07-27T19:10:52.545Z,52.46
2022-07-27T19:13:21.165Z,52.80
2022-07-27T19:15:48.999Z,53.02
2022-07-27T19:18:18.263Z,54.52
2022-07-27T19:20:46.143Z,54.20
2022-07-27T19:23:13.905Z,53.94
2022-07-27T19:25:42.045Z,54.96
2022-07-27T19:28:09.826Z,55.31
2022-07-27T19:30:39.283Z,54.12
2022-07-27T19:33:07.144Z,54.16
2022-07-27T19:35:36.306Z,54.70
2022-07-27T19:38:04.175Z,55.42
2022-07-27T19:40:47.482Z,55.45
2022-07-27T19:43:15.894Z,55.78
2022-07-27T19:45:44.340Z,55.46
2022-07-27T19:48:12.427Z,55.40
2022-07-27T19:50:42.318Z,55.50
2022-07-27T19:53:10.076Z,55.68
2022-07-27T19:55:37.918Z,55.86
2022-07-27T19:58:05.715Z,56.34
2022-07-27T20:00:33.536Z,56.63
2022-07-27T20:03:01.408Z,56.25
2022-07-27T20:05:29.539Z,56.14
2022-07-27T20:07:58.786Z,56.70
2022-07-27T20:10:26.968Z,56.74
2022-07-27T20:12:54.740Z,57.06
2022-07-27T20:15:22.775Z,57.16
2022-07-27T20:17:50.941Z,56.28
2022-07-27T20:20:18.995Z,56.94
2022-07-27T20:22:46.771Z,57.06
2022-07-27T20:25:16.179Z,58.13
2022-07-27T20:27:44.216Z,58.87
2022-07-27T20:30:14.519Z,59.65
2022-07-27T20:32:42.488Z,59.43
2022-07-27T20:35:10.414Z,59.28
2022-07-27T20:37:38.720Z,59.19
2022-07-27T20:40:09.626Z,59.59
2022-07-27T20:42:40.288Z,59.51
2022-07-27T20:45:12.739Z,59.70
2022-07-27T20:47:40.709Z,59.94
2022-07-27T20:50:09.713Z,60.07
2022-07-27T20:52:37.810Z,59.95
2022-07-27T20:55:06.728Z,60.15
2022-07-27T20:57:34.754Z,60.67
2022-07-27T21:00:06.514Z,61.18
2022-07-27T21:02:34.577Z,60.31
2022-07-27T21:05:02.699Z,60.91
2022-07-27T21:07:30.494Z,61.22
2022-07-27T21:09:58.263Z,61.64
2022-07-27T21:12:26.029Z,61.75
2022-07-27T21:14:54.221Z,61.07
2022-07-27T21:17:23.479Z,61.89
2022-07-27T21:19:51.240Z,61.78
2022-07-27T21:22:20.567Z,60.97
2022-07-27T21:24:49.557Z,61.95
2022-07-27T21:27:20.811Z,62.29
2022-07-27T21:29:49.354Z,62.42
2022-07-27T21:32:17.415Z,63.37
2022-07-27T21:34:46.543Z,62.92
2022-07-27T21:37:14.372Z,62.75
2022-07-27T21:39:42.208Z,63.33
2022-07-27T21:42:09.954Z,63.72
2022-07-27T21:44:37.693Z,63.93
2022-07-27T21:47:11.395Z,64.05
2022-07-27T21:49:41.048Z,63.97
2022-07-27T21:52:11.179Z,63.60
2022-07-27T21:54:39.205Z,63.47
2022-07-27T21:57:06.983Z,64.00
2022-07-27T21:59:36.212Z,63.88
2022-07-27T22:02:05.008Z,64.12
2022-07-27T22:04:32.954Z,64.29
2022-07-27T22:07:00.849Z,64.17
2022-07-27T22:09:30.208Z,63.64
2022-07-27T22:11:58.059Z,64.41
2022-07-27T22:14:25.910Z,64.63
2022-07-27T22:16:53.936Z,64.04
2022-07-27T22:19:21.863Z,63.54
2022-07-27T22:21:49.818Z,64.46
2022-07-27T22:24:17.769Z,64.43
2022-07-27T22:26:47.226Z,64.31
2022-07-27T22:29:15.035Z,63.76
2022-07-27T22:31:42.904Z,64.17
2022-07-27T22:34:11.021Z,64.17
2022-07-27T22:36:39.232Z,64.10
2022-07-27T22:39:07.310Z,64.31
2022-07-27T22:41:35.148Z,64.46
2022-07-27T22:44:04.304Z,64.34
2022-07-27T22:46:32.162Z,65.24
2022-07-27T22:49:00.230Z,65.12
2022-07-27T22:51:49.688Z,65.00
2022-07-27T22:54:16.296Z,65.31
2022-07-27T22:56:44.512Z,65.28
2022-07-27T22:59:13.691Z,65.30
2022-07-27T23:01:46.836Z,66.00
2022-07-27T23:04:16.726Z,65.82
2022-07-27T23:06:45.198Z,66.48
2022-07-27T23:09:13.341Z,66.39
2022-07-27T23:11:42.102Z,66.73
2022-07-27T23:14:10.011Z,66.44
2022-07-27T23:16:39.573Z,67.22
2022-07-27T23:19:07.472Z,66.78
2022-07-27T23:21:35.522Z,67.08
2022-07-27T23:24:05.517Z,66.52
2022-07-27T23:26:33.599Z,67.02
2022-07-27T23:29:01.882Z,66.94
2022-07-27T23:31:29.751Z,67.76
2022-07-27T23:33:58.935Z,68.42
2022-07-27T23:36:26.711Z,68.09
2022-07-27T23:38:54.500Z,69.28
2022-07-27T23:41:22.539Z,68.83
2022-07-27T23:43:50.356Z,69.63
2022-07-27T23:46:18.252Z,69.58
2022-07-27T23:48:46.246Z,70.05
2022-07-27T23:51:18.708Z,69.82
2022-07-27T23:53:47.588Z,70.30
2022-07-27T23:56:15.911Z,70.62
2022-07-27T23:58:43.747Z,70.42
